LGX59SC KSFO-KJFK
Flight info
| Callsign | LGX59SC |
|---|---|
| Flight time | N/A |
| Altitude | 35000 |
| Route | TRUKN2 ORRCA Q120 GALLI DCT BAM J94 OCS DCT KATES DCT DBQ DCT KG75M DCT DAFLU J70 JHW Q476 WLKES PUCKY1 |
| Aircraft | A346/H-SDE2E3FGHIJ3J4J5M1RWXY/LB1D1 |
Departure
| Time | N/A |
|---|---|
| Airport | San Francisco International Airport (KSFO) |
Arrival
| Time | 2026-05-03 21:18 |
|---|---|
| Airport | John F. Kennedy International Airport (KJFK) |
| Time | Latitude | Longitude | Altitude | Speed | Heading |
|---|---|---|---|---|---|
| 2026-05-03 20:15 | 42.39460 | -83.05992 | 34894 ft | 518 kts | 91° |
| 2026-05-03 20:15 | 42.39041 | -82.96285 | 34893 ft | 518 kts | 91° |
| 2026-05-03 20:16 | 42.38617 | -82.86622 | 34885 ft | 517 kts | 91° |
| 2026-05-03 20:16 | 42.38186 | -82.76978 | 34882 ft | 518 kts | 91° |
| 2026-05-03 20:17 | 42.37752 | -82.67258 | 34872 ft | 518 kts | 90° |
| 2026-05-03 20:17 | 42.37380 | -82.57568 | 34873 ft | 518 kts | 90° |
| 2026-05-03 20:18 | 42.37009 | -82.47894 | 34873 ft | 518 kts | 90° |
| 2026-05-03 20:18 | 42.36626 | -82.38245 | 34875 ft | 518 kts | 90° |
| 2026-05-03 20:19 | 42.36232 | -82.28559 | 34877 ft | 517 kts | 91° |
| 2026-05-03 20:19 | 42.35827 | -82.18841 | 34898 ft | 518 kts | 91° |
| 2026-05-03 20:20 | 42.35416 | -82.09150 | 34896 ft | 518 kts | 91° |
| 2026-05-03 20:20 | 42.34997 | -81.99465 | 34886 ft | 518 kts | 91° |
| 2026-05-03 20:21 | 42.34572 | -81.89842 | 34900 ft | 517 kts | 91° |
| 2026-05-03 20:21 | 42.34139 | -81.80188 | 34895 ft | 517 kts | 91° |
| 2026-05-03 20:22 | 42.33696 | -81.70481 | 34895 ft | 516 kts | 91° |
| 2026-05-03 20:22 | 42.33247 | -81.60851 | 34891 ft | 516 kts | 91° |
| 2026-05-03 20:23 | 42.32789 | -81.51247 | 34907 ft | 516 kts | 91° |
| 2026-05-03 20:23 | 42.32322 | -81.41602 | 34903 ft | 516 kts | 91° |
| 2026-05-03 20:24 | 42.31850 | -81.31936 | 34901 ft | 516 kts | 92° |
| 2026-05-03 20:24 | 42.31370 | -81.22296 | 34896 ft | 516 kts | 92° |
| 2026-05-03 20:25 | 42.30886 | -81.12719 | 34899 ft | 516 kts | 92° |
| 2026-05-03 20:25 | 42.30391 | -81.03069 | 34905 ft | 516 kts | 92° |
| 2026-05-03 20:26 | 42.29888 | -80.93413 | 34899 ft | 517 kts | 92° |
| 2026-05-03 20:26 | 42.29379 | -80.83784 | 34896 ft | 517 kts | 92° |
| 2026-05-03 20:27 | 42.28858 | -80.74140 | 34900 ft | 517 kts | 92° |
| 2026-05-03 20:27 | 42.28323 | -80.64503 | 34884 ft | 517 kts | 92° |
| 2026-05-03 20:28 | 42.27780 | -80.54870 | 34895 ft | 517 kts | 92° |
| 2026-05-03 20:28 | 42.27230 | -80.45190 | 34883 ft | 518 kts | 92° |
| 2026-05-03 20:29 | 42.26672 | -80.35510 | 34901 ft | 518 kts | 92° |
| 2026-05-03 20:29 | 42.26109 | -80.25892 | 34910 ft | 518 kts | 93° |
| 2026-05-03 20:30 | 42.25536 | -80.16245 | 34919 ft | 518 kts | 93° |
| 2026-05-03 20:30 | 42.24956 | -80.06609 | 34908 ft | 518 kts | 93° |
| 2026-05-03 20:31 | 42.24367 | -79.96950 | 34906 ft | 518 kts | 93° |
| 2026-05-03 20:31 | 42.23769 | -79.87283 | 34903 ft | 518 kts | 93° |
| 2026-05-03 20:32 | 42.23164 | -79.77628 | 34904 ft | 518 kts | 93° |
| 2026-05-03 20:32 | 42.22551 | -79.67998 | 34901 ft | 519 kts | 93° |
| 2026-05-03 20:33 | 42.21928 | -79.58340 | 34904 ft | 520 kts | 93° |
| 2026-05-03 20:33 | 42.21297 | -79.48637 | 34901 ft | 520 kts | 93° |
| 2026-05-03 20:34 | 42.20659 | -79.38979 | 34912 ft | 520 kts | 93° |
| 2026-05-03 20:34 | 42.20015 | -79.29303 | 34912 ft | 520 kts | 94° |
| 2026-05-03 20:35 | 42.19342 | -79.19653 | 34915 ft | 520 kts | 95° |
| 2026-05-03 20:35 | 42.18088 | -79.10039 | 34911 ft | 522 kts | 103° |
| 2026-05-03 20:36 | 42.16028 | -79.00726 | 34892 ft | 521 kts | 108° |
| 2026-05-03 20:36 | 42.13703 | -78.91537 | 34893 ft | 521 kts | 108° |
| 2026-05-03 20:37 | 42.11361 | -78.82290 | 34890 ft | 522 kts | 108° |
| 2026-05-03 20:37 | 42.09036 | -78.73079 | 34883 ft | 521 kts | 108° |
| 2026-05-03 20:38 | 42.06715 | -78.63902 | 34882 ft | 522 kts | 108° |
| 2026-05-03 20:38 | 42.04372 | -78.54663 | 34883 ft | 522 kts | 108° |
| 2026-05-03 20:39 | 42.02042 | -78.45516 | 34887 ft | 522 kts | 108° |
| 2026-05-03 20:39 | 41.99678 | -78.36273 | 34886 ft | 522 kts | 108° |
| 2026-05-03 20:40 | 41.97318 | -78.27080 | 34895 ft | 522 kts | 109° |
| 2026-05-03 20:40 | 41.94964 | -78.17936 | 34887 ft | 522 kts | 109° |
| 2026-05-03 20:41 | 41.92592 | -78.08762 | 34898 ft | 522 kts | 109° |
| 2026-05-03 20:41 | 41.90217 | -77.99599 | 34892 ft | 522 kts | 109° |
| 2026-05-03 20:42 | 41.87833 | -77.90445 | 34891 ft | 521 kts | 109° |
| 2026-05-03 20:42 | 41.85436 | -77.81290 | 34890 ft | 522 kts | 109° |
| 2026-05-03 20:43 | 41.83035 | -77.72168 | 34888 ft | 522 kts | 109° |
| 2026-05-03 20:43 | 41.80616 | -77.62988 | 34890 ft | 522 kts | 109° |
| 2026-05-03 20:44 | 41.78193 | -77.53838 | 34895 ft | 522 kts | 110° |
| 2026-05-03 20:44 | 41.75772 | -77.44745 | 34901 ft | 522 kts | 110° |
| 2026-05-03 20:45 | 41.73334 | -77.35609 | 34895 ft | 523 kts | 110° |
| 2026-05-03 20:45 | 41.70893 | -77.26486 | 34898 ft | 522 kts | 110° |
| 2026-05-03 20:46 | 41.68442 | -77.17361 | 34899 ft | 523 kts | 110° |
| 2026-05-03 20:46 | 41.65980 | -77.08250 | 34896 ft | 523 kts | 111° |
| 2026-05-03 20:47 | 41.63526 | -76.99205 | 34895 ft | 522 kts | 110° |
| 2026-05-03 20:47 | 41.61047 | -76.90087 | 34889 ft | 522 kts | 111° |
| 2026-05-03 20:48 | 41.58576 | -76.81023 | 34899 ft | 522 kts | 111° |
| 2026-05-03 20:48 | 41.56095 | -76.71955 | 34899 ft | 523 kts | 111° |
| 2026-05-03 20:49 | 41.53607 | -76.62893 | 34896 ft | 523 kts | 111° |
| 2026-05-03 20:49 | 41.51098 | -76.53806 | 34896 ft | 523 kts | 111° |
| 2026-05-03 20:50 | 41.48584 | -76.44739 | 34889 ft | 523 kts | 111° |
| 2026-05-03 20:50 | 41.46069 | -76.35682 | 34886 ft | 524 kts | 111° |
| 2026-05-03 20:51 | 41.43545 | -76.26625 | 34885 ft | 524 kts | 112° |
| 2026-05-03 20:51 | 41.41002 | -76.17525 | 34891 ft | 524 kts | 111° |
| 2026-05-03 20:52 | 41.38467 | -76.08495 | 34892 ft | 523 kts | 112° |
| 2026-05-03 20:52 | 41.37200 | -76.03984 | 34723 ft | 520 kts | 111° |
| 2026-05-03 20:52 | 41.35947 | -75.99538 | 34118 ft | 523 kts | 111° |
| 2026-05-03 20:52 | 41.34653 | -75.94961 | 33380 ft | 530 kts | 111° |
| 2026-05-03 20:53 | 41.33364 | -75.90414 | 32744 ft | 534 kts | 111° |
| 2026-05-03 20:53 | 41.32057 | -75.85798 | 32177 ft | 534 kts | 111° |
| 2026-05-03 20:53 | 41.30749 | -75.81180 | 31612 ft | 534 kts | 110° |
| 2026-05-03 20:53 | 41.29448 | -75.76596 | 31028 ft | 534 kts | 110° |
| 2026-05-03 20:54 | 41.28137 | -75.71989 | 30161 ft | 535 kts | 110° |
| 2026-05-03 20:54 | 41.25264 | -75.62896 | 28421 ft | 536 kts | 113° |
| 2026-05-03 20:54 | 41.23775 | -75.58454 | 27864 ft | 529 kts | 113° |
| 2026-05-03 20:55 | 41.22285 | -75.54024 | 27391 ft | 522 kts | 113° |
| 2026-05-03 20:55 | 41.20806 | -75.49624 | 26872 ft | 517 kts | 113° |
| 2026-05-03 20:55 | 41.19364 | -75.45329 | 26289 ft | 513 kts | 113° |
| 2026-05-03 20:55 | 41.17929 | -75.41058 | 25708 ft | 510 kts | 112° |
| 2026-05-03 20:56 | 41.16485 | -75.36767 | 25128 ft | 506 kts | 112° |
| 2026-05-03 20:56 | 41.15054 | -75.32519 | 24534 ft | 502 kts | 113° |
| 2026-05-03 20:56 | 41.13639 | -75.28326 | 23949 ft | 498 kts | 113° |
| 2026-05-03 20:56 | 41.12231 | -75.24163 | 23365 ft | 494 kts | 113° |
| 2026-05-03 20:57 | 41.10838 | -75.20041 | 22761 ft | 491 kts | 113° |
| 2026-05-03 20:57 | 41.09453 | -75.15952 | 22192 ft | 487 kts | 113° |
| 2026-05-03 20:57 | 41.08090 | -75.11929 | 21633 ft | 482 kts | 113° |
| 2026-05-03 20:57 | 41.06707 | -75.07860 | 21065 ft | 478 kts | 113° |
| 2026-05-03 20:58 | 41.05350 | -75.03874 | 20473 ft | 475 kts | 112° |
| 2026-05-03 20:58 | 41.04002 | -74.99918 | 19873 ft | 472 kts | 112° |
| 2026-05-03 20:58 | 41.02677 | -74.96036 | 19385 ft | 466 kts | 112° |
| 2026-05-03 20:58 | 41.01340 | -74.92120 | 18920 ft | 460 kts | 112° |
| 2026-05-03 20:59 | 41.00162 | -74.88270 | 18482 ft | 453 kts | 107° |
| 2026-05-03 20:59 | 40.99291 | -74.84336 | 18053 ft | 445 kts | 100° |
| 2026-05-03 20:59 | 40.98715 | -74.80317 | 17626 ft | 439 kts | 96° |
| 2026-05-03 20:59 | 40.98258 | -74.76358 | 17194 ft | 434 kts | 95° |
| 2026-05-03 21:00 | 40.97828 | -74.72471 | 16777 ft | 430 kts | 95° |
| 2026-05-03 21:00 | 40.97535 | -74.69846 | 16488 ft | 428 kts | 95° |
| 2026-05-03 21:00 | 40.96953 | -74.64737 | 15946 ft | 423 kts | 95° |
| 2026-05-03 21:00 | 40.96509 | -74.60901 | 15514 ft | 419 kts | 95° |
| 2026-05-03 21:01 | 40.96065 | -74.57112 | 15106 ft | 416 kts | 95° |
| 2026-05-03 21:01 | 40.95622 | -74.53364 | 14682 ft | 413 kts | 95° |
| 2026-05-03 21:01 | 40.95179 | -74.49630 | 14272 ft | 410 kts | 94° |
| 2026-05-03 21:01 | 40.94743 | -74.45969 | 13872 ft | 406 kts | 95° |
| 2026-05-03 21:02 | 40.94306 | -74.42300 | 13463 ft | 403 kts | 94° |
| 2026-05-03 21:02 | 40.93870 | -74.38635 | 13030 ft | 401 kts | 95° |
| 2026-05-03 21:02 | 40.93441 | -74.35042 | 12595 ft | 399 kts | 95° |
| 2026-05-03 21:02 | 40.93007 | -74.31420 | 12145 ft | 397 kts | 96° |
| 2026-05-03 21:03 | 40.92574 | -74.27827 | 11698 ft | 395 kts | 96° |
| 2026-05-03 21:03 | 40.92142 | -74.24257 | 11261 ft | 393 kts | 96° |
| 2026-05-03 21:03 | 40.91713 | -74.20734 | 10850 ft | 389 kts | 96° |
| 2026-05-03 21:03 | 40.91289 | -74.17272 | 10683 ft | 377 kts | 97° |
| 2026-05-03 21:04 | 40.90837 | -74.13917 | 10557 ft | 366 kts | 102° |
| 2026-05-03 21:04 | 40.90004 | -74.10810 | 10442 ft | 355 kts | 115° |
| 2026-05-03 21:04 | 40.88791 | -74.08010 | 10333 ft | 343 kts | 122° |
| 2026-05-03 21:04 | 40.87509 | -74.05431 | 10237 ft | 332 kts | 124° |
| 2026-05-03 21:05 | 40.86247 | -74.02945 | 10143 ft | 321 kts | 124° |
| 2026-05-03 21:05 | 40.85026 | -74.00516 | 10055 ft | 311 kts | 123° |
| 2026-05-03 21:05 | 40.83852 | -73.98149 | 9972 ft | 307 kts | 123° |
| 2026-05-03 21:05 | 40.82702 | -73.95812 | 9671 ft | 307 kts | 123° |
| 2026-05-03 21:06 | 40.81536 | -73.93434 | 9358 ft | 307 kts | 123° |
| 2026-05-03 21:06 | 40.80380 | -73.91076 | 9062 ft | 306 kts | 123° |
| 2026-05-03 21:06 | 40.79233 | -73.88737 | 8776 ft | 305 kts | 123° |
| 2026-05-03 21:06 | 40.78079 | -73.86385 | 8478 ft | 303 kts | 123° |
| 2026-05-03 21:07 | 40.76913 | -73.84046 | 7971 ft | 307 kts | 123° |
| 2026-05-03 21:07 | 40.75745 | -73.81718 | 7483 ft | 306 kts | 123° |
| 2026-05-03 21:07 | 40.74572 | -73.79378 | 7099 ft | 302 kts | 123° |
| 2026-05-03 21:07 | 40.73433 | -73.77106 | 6738 ft | 297 kts | 123° |
| 2026-05-03 21:08 | 40.72300 | -73.74846 | 6380 ft | 292 kts | 122° |
| 2026-05-03 21:08 | 40.71195 | -73.72642 | 6041 ft | 287 kts | 122° |
| 2026-05-03 21:08 | 40.70102 | -73.70461 | 5708 ft | 283 kts | 122° |
| 2026-05-03 21:08 | 40.69033 | -73.68330 | 5386 ft | 279 kts | 122° |
| 2026-05-03 21:09 | 40.67980 | -73.66231 | 5041 ft | 276 kts | 122° |
| 2026-05-03 21:09 | 40.66924 | -73.64127 | 4664 ft | 274 kts | 122° |
| 2026-05-03 21:09 | 40.65881 | -73.62053 | 4411 ft | 270 kts | 122° |
| 2026-05-03 21:09 | 40.64848 | -73.59995 | 4201 ft | 266 kts | 122° |
| 2026-05-03 21:10 | 40.63837 | -73.57987 | 3995 ft | 262 kts | 122° |
| 2026-05-03 21:10 | 40.62843 | -73.56014 | 3812 ft | 257 kts | 122° |
| 2026-05-03 21:10 | 40.61865 | -73.54073 | 3655 ft | 252 kts | 122° |
| 2026-05-03 21:10 | 40.60905 | -73.52170 | 3501 ft | 246 kts | 122° |
| 2026-05-03 21:11 | 40.59966 | -73.50307 | 3356 ft | 242 kts | 122° |
| 2026-05-03 21:11 | 40.59038 | -73.48467 | 3219 ft | 242 kts | 122° |
| 2026-05-03 21:11 | 40.57930 | -73.46860 | 3057 ft | 237 kts | 153° |
| 2026-05-03 21:11 | 40.56434 | -73.46475 | 2970 ft | 206 kts | 199° |
| 2026-05-03 21:12 | 40.55314 | -73.47354 | 2977 ft | 179 kts | 237° |
| 2026-05-03 21:12 | 40.54704 | -73.48704 | 2989 ft | 168 kts | 258° |
| 2026-05-03 21:12 | 40.54503 | -73.50178 | 2992 ft | 163 kts | 271° |
| 2026-05-03 21:12 | 40.54404 | -73.51665 | 2991 ft | 163 kts | 271° |
| 2026-05-03 21:13 | 40.54485 | -73.53121 | 2992 ft | 158 kts | 287° |
| 2026-05-03 21:13 | 40.54819 | -73.54479 | 2996 ft | 156 kts | 295° |
| 2026-05-03 21:13 | 40.55285 | -73.55767 | 2995 ft | 156 kts | 300° |
| 2026-05-03 21:13 | 40.55825 | -73.57011 | 2996 ft | 156 kts | 301° |
| 2026-05-03 21:14 | 40.56375 | -73.58228 | 2993 ft | 156 kts | 302° |
| 2026-05-03 21:14 | 40.56929 | -73.59453 | 2883 ft | 156 kts | 302° |
| 2026-05-03 21:14 | 40.57480 | -73.60674 | 2675 ft | 155 kts | 302° |
| 2026-05-03 21:14 | 40.58025 | -73.61882 | 2461 ft | 150 kts | 301° |
| 2026-05-03 21:15 | 40.58540 | -73.63029 | 2260 ft | 143 kts | 302° |
| 2026-05-03 21:15 | 40.59044 | -73.64145 | 2085 ft | 142 kts | 302° |
| 2026-05-03 21:15 | 40.59551 | -73.65269 | 1904 ft | 142 kts | 302° |
| 2026-05-03 21:15 | 40.60051 | -73.66378 | 1727 ft | 141 kts | 302° |
| 2026-05-03 21:16 | 40.60554 | -73.67490 | 1535 ft | 141 kts | 302° |
| 2026-05-03 21:16 | 40.61058 | -73.68605 | 1348 ft | 140 kts | 302° |
| 2026-05-03 21:16 | 40.61555 | -73.69704 | 1161 ft | 140 kts | 302° |
| 2026-05-03 21:16 | 40.62049 | -73.70797 | 970 ft | 140 kts | 302° |
| 2026-05-03 21:17 | 40.62544 | -73.71892 | 784 ft | 139 kts | 302° |
| 2026-05-03 21:17 | 40.62870 | -73.72613 | 668 ft | 138 kts | 302° |
| 2026-05-03 21:17 | 40.63530 | -73.74071 | 418 ft | 138 kts | 302° |
| 2026-05-03 21:17 | 40.64021 | -73.75154 | 240 ft | 135 kts | 301° |
| 2026-05-03 21:18 | 40.64497 | -73.76208 | 73 ft | 133 kts | 301° |
| 2026-05-03 21:18 | 40.64929 | -73.77159 | 25 ft | 96 kts | 300° |
| 2026-05-03 21:18 | 40.65161 | -73.77673 | 25 ft | 38 kts | 302° |
| 2026-05-03 21:18 | 40.65228 | -73.77847 | 25 ft | 15 kts | 272° |
| 2026-05-03 21:19 | 40.65187 | -73.77940 | 25 ft | 8 kts | 218° |
| 2026-05-03 21:19 | 40.65178 | -73.77949 | 25 ft | 0 kts | 217° |
| 2026-05-03 21:20 | 40.65174 | -73.77957 | 25 ft | 2 kts | 249° |
| 2026-05-03 21:20 | 40.65181 | -73.77984 | 25 ft | 4 kts | 296° |
| 2026-05-03 21:21 | 40.65202 | -73.78039 | 24 ft | 8 kts | 298° |
| 2026-05-03 21:21 | 40.65214 | -73.78094 | 25 ft | 4 kts | 252° |
| 2026-05-03 21:21 | 40.65184 | -73.78134 | 25 ft | 7 kts | 202° |
| 2026-05-03 21:21 | 40.65126 | -73.78170 | 25 ft | 10 kts | 222° |
| 2026-05-03 21:22 | 40.65096 | -73.78222 | 24 ft | 5 kts | 237° |
| 2026-05-03 21:22 | 40.65073 | -73.78262 | 25 ft | 4 kts | 218° |
| 2026-05-03 21:22 | 40.65060 | -73.78271 | 25 ft | 0 kts | 201° |